createdAt,value
2023-02-16T00:00:46.514Z,1.70
2023-02-16T00:03:22.975Z,1.70
2023-02-16T00:05:50.827Z,1.70
2023-02-16T00:08:17.827Z,1.70
2023-02-16T00:11:05.885Z,1.70
2023-02-16T00:13:45.179Z,1.70
2023-02-16T00:16:24.057Z,1.70
2023-02-16T00:18:52.200Z,1.70
2023-02-16T00:21:19.178Z,1.70
2023-02-16T00:23:48.511Z,1.80
2023-02-16T00:26:26.298Z,1.80
2023-02-16T00:28:55.383Z,1.80
2023-02-16T00:31:28.591Z,1.80
2023-02-16T00:33:56.511Z,1.70
2023-02-16T00:36:24.214Z,1.70
2023-02-16T00:38:51.494Z,1.80
2023-02-16T00:41:42.722Z,1.80
2023-02-16T00:44:19.945Z,1.70
2023-02-16T00:46:47.640Z,1.70
2023-02-16T00:49:19.678Z,1.70
2023-02-16T00:51:47.436Z,1.70
2023-02-16T00:54:15.036Z,1.70
2023-02-16T00:56:43.042Z,1.70
2023-02-16T00:59:18.182Z,1.70
2023-02-16T01:01:45.425Z,1.70
2023-02-16T01:04:19.676Z,1.80
2023-02-16T01:07:05.181Z,1.80
2023-02-16T01:09:50.746Z,1.80
2023-02-16T01:12:20.338Z,1.80
2023-02-16T01:14:51.868Z,1.80
2023-02-16T01:17:19.009Z,1.80
2023-02-16T01:19:46.017Z,1.80
2023-02-16T01:22:13.188Z,1.80
2023-02-16T01:24:40.139Z,1.80
2023-02-16T01:27:12.506Z,1.70
2023-02-16T01:29:39.633Z,1.70
2023-02-16T01:32:06.651Z,1.70
2023-02-16T01:34:33.609Z,1.70
2023-02-16T01:37:00.600Z,1.70
2023-02-16T01:39:27.434Z,1.70
2023-02-16T01:42:15.066Z,1.70
2023-02-16T01:44:46.952Z,1.70
2023-02-16T01:47:48.068Z,1.70
2023-02-16T01:50:17.430Z,1.70
2023-02-16T01:52:53.103Z,1.70
2023-02-16T01:55:35.271Z,1.70
2023-02-16T01:58:08.294Z,1.70
2023-02-16T02:00:54.753Z,1.70
2023-02-16T02:03:46.348Z,1.70
2023-02-16T02:06:20.348Z,1.70
2023-02-16T02:09:05.893Z,1.70
2023-02-16T02:11:34.781Z,1.60
2023-02-16T02:14:17.897Z,1.60
2023-02-16T02:17:16.770Z,1.60
2023-02-16T02:19:52.989Z,1.60
2023-02-16T02:22:59.684Z,1.60
2023-02-16T02:25:49.936Z,1.60
2023-02-16T02:28:35.313Z,1.60
2023-02-16T02:31:14.538Z,1.60
2023-02-16T02:33:41.569Z,1.60
2023-02-16T02:36:11.230Z,1.60
2023-02-16T02:39:03.272Z,1.60
2023-02-16T02:42:02.211Z,1.60
2023-02-16T02:44:31.548Z,1.60
2023-02-16T02:46:58.800Z,1.60
2023-02-16T02:49:25.758Z,1.60
2023-02-16T02:51:52.706Z,1.50
2023-02-16T02:54:52.516Z,1.60
2023-02-16T02:57:42.143Z,1.50
2023-02-16T03:00:31.529Z,1.50
2023-02-16T03:03:21.484Z,1.50
2023-02-16T03:05:51.007Z,1.50
2023-02-16T03:08:22.278Z,1.50
2023-02-16T03:11:11.875Z,1.50
2023-02-16T03:13:46.030Z,1.50
2023-02-16T03:16:16.688Z,1.40
2023-02-16T03:19:02.984Z,1.50
2023-02-16T03:21:52.876Z,1.40
2023-02-16T03:24:48.406Z,1.40
2023-02-16T03:27:39.871Z,1.40
2023-02-16T03:30:10.642Z,1.40
2023-02-16T03:32:38.841Z,1.40
2023-02-16T03:35:07.138Z,1.40
2023-02-16T03:37:34.600Z,1.40
2023-02-16T03:40:20.335Z,1.30
2023-02-16T03:42:53.328Z,1.30
2023-02-16T03:45:21.333Z,1.30
2023-02-16T03:47:48.249Z,1.30
2023-02-16T03:50:15.330Z,1.40
2023-02-16T03:52:42.350Z,1.40
2023-02-16T03:55:09.309Z,1.40
2023-02-16T03:57:36.310Z,1.40
2023-02-16T04:00:03.798Z,1.30
2023-02-16T04:02:30.780Z,1.40
2023-02-16T04:04:58.392Z,1.30
2023-02-16T04:07:26.525Z,1.30
2023-02-16T04:09:53.437Z,1.30
2023-02-16T04:12:38.408Z,1.30
2023-02-16T04:15:19.866Z,1.30
2023-02-16T04:17:47.195Z,1.30
2023-02-16T04:20:17.566Z,1.30
2023-02-16T04:22:45.305Z,1.30
2023-02-16T04:25:12.651Z,1.30
2023-02-16T04:27:40.664Z,1.30
2023-02-16T04:30:10.809Z,1.30
2023-02-16T04:32:38.708Z,1.30
2023-02-16T04:35:05.881Z,1.40
2023-02-16T04:37:32.824Z,1.40
2023-02-16T04:39:59.809Z,1.40
2023-02-16T04:42:27.554Z,1.40
2023-02-16T04:44:54.486Z,1.40
2023-02-16T04:47:23.055Z,1.40
2023-02-16T04:49:50.372Z,1.40
2023-02-16T04:52:18.030Z,1.40
2023-02-16T04:54:45.061Z,1.40
2023-02-16T04:57:12.811Z,1.30
2023-02-16T04:59:39.748Z,1.40
2023-02-16T05:02:06.647Z,1.40
2023-02-16T05:04:33.784Z,1.40
2023-02-16T05:07:00.681Z,1.40
2023-02-16T05:09:27.642Z,1.40
2023-02-16T05:12:12.777Z,1.40
2023-02-16T05:14:42.868Z,1.40
2023-02-16T05:17:13.456Z,1.40
2023-02-16T05:19:44.053Z,1.40
2023-02-16T05:22:11.711Z,1.50
2023-02-16T05:24:39.266Z,1.50
2023-02-16T05:27:08.807Z,1.50
2023-02-16T05:29:35.655Z,1.40
2023-02-16T05:32:04.712Z,1.50
2023-02-16T05:34:32.329Z,1.50
2023-02-16T05:36:59.356Z,1.50
2023-02-16T05:39:28.527Z,1.50
2023-02-16T05:41:55.493Z,1.50
2023-02-16T05:44:22.436Z,1.50
2023-02-16T05:46:50.440Z,1.40
2023-02-16T05:49:19.574Z,1.40
2023-02-16T05:51:47.153Z,1.50
2023-02-16T05:54:17.430Z,1.40
2023-02-16T05:56:53.581Z,1.40
2023-02-16T05:59:20.512Z,1.50
2023-02-16T06:01:51.316Z,1.50
2023-02-16T06:04:19.735Z,1.50
2023-02-16T06:06:46.577Z,1.40
2023-02-16T06:09:13.471Z,1.40
2023-02-16T06:11:40.411Z,1.40
2023-02-16T06:14:13.147Z,1.50
2023-02-16T06:16:42.569Z,1.50
2023-02-16T06:19:09.714Z,1.50
2023-02-16T06:21:39.277Z,1.50
2023-02-16T06:24:08.106Z,1.50
2023-02-16T06:26:35.773Z,1.60
2023-02-16T06:29:02.717Z,1.50
2023-02-16T06:31:29.937Z,1.50
2023-02-16T06:33:57.150Z,1.60
2023-02-16T06:36:25.061Z,1.60
2023-02-16T06:38:52.058Z,1.70
2023-02-16T06:41:31.675Z,1.70
2023-02-16T06:44:02.864Z,1.70
2023-02-16T06:46:30.146Z,1.70
2023-02-16T06:48:57.064Z,1.80
2023-02-16T06:51:24.407Z,1.70
2023-02-16T06:53:51.418Z,1.80
2023-02-16T06:56:18.565Z,1.90
2023-02-16T06:58:45.414Z,1.90
2023-02-16T07:01:12.555Z,1.90
2023-02-16T07:03:40.043Z,2.00
2023-02-16T07:06:07.371Z,2.00
2023-02-16T07:08:35.679Z,2.10
2023-02-16T07:11:03.180Z,2.10
2023-02-16T07:13:30.170Z,2.10
2023-02-16T07:15:57.076Z,2.20
2023-02-16T07:18:24.022Z,2.20
2023-02-16T07:20:50.969Z,2.20
2023-02-16T07:23:17.818Z,2.20
2023-02-16T07:25:44.704Z,2.20
2023-02-16T07:28:11.622Z,2.20
2023-02-16T07:30:38.654Z,2.20
2023-02-16T07:33:06.799Z,2.10
2023-02-16T07:35:37.978Z,2.00
2023-02-16T07:38:05.803Z,2.10
2023-02-16T07:40:32.853Z,2.10
2023-02-16T07:43:01.349Z,2.10
2023-02-16T07:45:28.811Z,2.10
2023-02-16T07:47:55.926Z,2.00
2023-02-16T07:50:22.809Z,2.10
2023-02-16T07:52:49.775Z,2.10
2023-02-16T07:55:16.973Z,2.20
2023-02-16T07:57:43.958Z,2.30
2023-02-16T08:00:11.414Z,2.40
2023-02-16T08:02:38.645Z,2.40
2023-02-16T08:05:06.165Z,2.30
2023-02-16T08:07:33.203Z,2.30
2023-02-16T08:10:01.140Z,2.40
2023-02-16T08:12:28.074Z,2.40
2023-02-16T08:14:55.019Z,2.50
2023-02-16T08:17:21.924Z,2.50
2023-02-16T08:19:49.649Z,2.60
2023-02-16T08:22:18.326Z,2.50
2023-02-16T08:24:45.525Z,2.70
2023-02-16T08:27:13.946Z,2.70
2023-02-16T08:29:41.840Z,2.80
2023-02-16T08:32:13.018Z,2.80
2023-02-16T08:34:42.956Z,2.80
2023-02-16T08:37:13.217Z,2.80
2023-02-16T08:39:40.719Z,2.90
2023-02-16T08:42:08.485Z,2.90
2023-02-16T08:44:35.533Z,2.90
2023-02-16T08:47:02.796Z,2.80
2023-02-16T08:49:29.840Z,2.80
2023-02-16T08:51:58.742Z,2.70
2023-02-16T08:54:30.115Z,2.80
2023-02-16T08:56:59.879Z,2.60
2023-02-16T08:59:28.744Z,2.60
2023-02-16T09:01:57.065Z,2.70
2023-02-16T09:04:25.866Z,2.80
2023-02-16T09:06:53.670Z,2.80
2023-02-16T09:09:20.714Z,2.80
2023-02-16T09:11:48.388Z,2.90
2023-02-16T09:14:18.167Z,3.00
2023-02-16T09:16:48.161Z,3.00
2023-02-16T09:19:18.380Z,3.10
2023-02-16T09:21:46.947Z,3.00
2023-02-16T09:24:14.026Z,3.00
2023-02-16T09:26:43.022Z,3.10
2023-02-16T09:29:12.884Z,3.20
2023-02-16T09:31:40.532Z,3.20
2023-02-16T09:34:14.822Z,3.30
2023-02-16T09:36:42.390Z,3.40
2023-02-16T09:39:09.925Z,3.40
2023-02-16T09:42:01.112Z,3.40
2023-02-16T09:44:34.225Z,3.50
2023-02-16T09:47:06.208Z,3.50
2023-02-16T09:49:37.998Z,3.60
2023-02-16T09:52:19.781Z,3.70
2023-02-16T09:54:53.475Z,3.70
2023-02-16T09:57:33.529Z,3.60
2023-02-16T10:00:14.149Z,3.70
2023-02-16T10:03:06.801Z,3.60
2023-02-16T10:05:41.749Z,3.60
2023-02-16T10:08:14.537Z,3.70
2023-02-16T10:11:04.370Z,3.80
2023-02-16T10:13:34.898Z,3.80
2023-02-16T10:16:04.388Z,3.80
2023-02-16T10:18:40.282Z,3.80
2023-02-16T10:21:21.824Z,3.80
2023-02-16T10:23:57.775Z,3.80
2023-02-16T10:26:46.716Z,3.60
2023-02-16T10:29:20.853Z,3.50
2023-02-16T10:32:06.385Z,3.40
2023-02-16T10:34:41.888Z,3.30
2023-02-16T10:37:34.808Z,3.30
2023-02-16T10:40:35.355Z,3.30
2023-02-16T10:43:28.654Z,3.20
2023-02-16T10:46:01.949Z,3.30
2023-02-16T10:48:29.130Z,3.30
2023-02-16T10:51:16.801Z,3.30
2023-02-16T10:53:52.572Z,3.40
2023-02-16T10:56:49.498Z,3.50
2023-02-16T10:59:19.137Z,3.50
2023-02-16T11:01:54.001Z,3.50
2023-02-16T11:04:37.042Z,3.60
2023-02-16T11:07:03.976Z,3.60
2023-02-16T11:09:31.421Z,3.60
2023-02-16T11:11:59.161Z,3.80
2023-02-16T11:14:30.577Z,3.70
2023-02-16T11:17:14.456Z,3.70
2023-02-16T11:19:50.635Z,3.70
2023-02-16T11:22:38.804Z,3.60
2023-02-16T11:25:28.061Z,3.60
2023-02-16T11:27:54.922Z,3.60
2023-02-16T11:30:41.463Z,3.70
2023-02-16T11:33:27.644Z,3.60
2023-02-16T11:35:55.980Z,3.60
2023-02-16T11:38:27.731Z,3.60
2023-02-16T11:40:55.304Z,3.70
2023-02-16T11:43:22.503Z,3.70
2023-02-16T11:46:18.669Z,3.70
2023-02-16T11:48:46.670Z,3.70
2023-02-16T11:51:15.959Z,3.70
2023-02-16T11:53:44.966Z,3.60
2023-02-16T11:56:23.314Z,3.60
2023-02-16T11:59:15.058Z,3.60
2023-02-16T12:02:12.164Z,3.60
2023-02-16T12:04:59.558Z,3.60
2023-02-16T12:07:41.558Z,3.50
2023-02-16T12:10:29.015Z,3.50
2023-02-16T12:13:26.944Z,3.50
2023-02-16T12:16:15.464Z,3.40
2023-02-16T12:18:45.160Z,3.50
2023-02-16T12:21:35.307Z,3.50
2023-02-16T12:24:26.711Z,3.50
2023-02-16T12:27:08.457Z,3.60
2023-02-16T12:29:35.339Z,3.50
2023-02-16T12:32:13.845Z,3.50
2023-02-16T12:34:59.340Z,3.50
2023-02-16T12:37:34.278Z,3.40
2023-02-16T12:40:24.299Z,3.30
2023-02-16T12:42:57.665Z,3.30
2023-02-16T12:45:28.129Z,3.30
2023-02-16T12:48:01.798Z,3.30
2023-02-16T12:50:30.690Z,3.30
2023-02-16T12:53:22.512Z,3.40
2023-02-16T12:56:18.553Z,3.40
2023-02-16T12:58:53.475Z,3.30
2023-02-16T13:01:25.572Z,3.40
2023-02-16T13:03:59.375Z,3.30
2023-02-16T13:06:37.565Z,3.40
2023-02-16T13:09:44.226Z,3.30
2023-02-16T13:12:40.265Z,3.20
2023-02-16T13:15:19.047Z,3.20
2023-02-16T13:18:19.123Z,3.20
2023-02-16T13:20:51.043Z,3.10
2023-02-16T13:23:39.620Z,3.10
2023-02-16T13:26:21.318Z,3.20
2023-02-16T13:29:07.978Z,3.10
2023-02-16T13:31:53.176Z,3.20
2023-02-16T13:34:38.957Z,3.20
2023-02-16T13:37:31.764Z,3.10
2023-02-16T13:40:08.229Z,3.00
2023-02-16T13:42:57.930Z,3.00
2023-02-16T13:45:28.449Z,2.90
2023-02-16T13:47:57.245Z,2.90
2023-02-16T13:50:28.261Z,2.90
2023-02-16T13:52:59.183Z,3.00
2023-02-16T13:55:29.207Z,3.00
2023-02-16T13:58:02.101Z,2.90
2023-02-16T14:00:42.162Z,2.90
2023-02-16T14:03:22.495Z,2.80
2023-02-16T14:06:09.736Z,2.80
2023-02-16T14:08:36.591Z,2.80
2023-02-16T14:11:08.899Z,2.80
2023-02-16T14:13:38.736Z,2.70
2023-02-16T14:16:22.501Z,2.50
2023-02-16T14:19:19.302Z,2.50
2023-02-16T14:21:48.868Z,2.50
2023-02-16T14:24:33.447Z,2.40
2023-02-16T14:27:06.043Z,2.40
2023-02-16T14:29:38.640Z,2.40
2023-02-16T14:32:26.872Z,2.40
2023-02-16T14:34:58.628Z,2.40
2023-02-16T14:37:33.995Z,2.40
2023-02-16T14:40:17.336Z,2.40
2023-02-16T14:42:54.442Z,2.40
2023-02-16T14:45:21.277Z,2.30
2023-02-16T14:48:27.689Z,2.40
2023-02-16T14:51:14.557Z,2.30
2023-02-16T14:54:00.641Z,2.30
2023-02-16T14:56:39.249Z,2.20
2023-02-16T14:59:34.922Z,2.20
2023-02-16T15:02:35.311Z,2.10
2023-02-16T15:05:19.712Z,2.10
2023-02-16T15:07:54.890Z,2.10
2023-02-16T15:10:27.996Z,2.20
2023-02-16T15:12:58.480Z,2.20
2023-02-16T15:15:36.693Z,2.20
2023-02-16T15:18:06.574Z,2.10
2023-02-16T15:20:37.880Z,2.00
2023-02-16T15:23:07.991Z,2.00
2023-02-16T15:25:42.252Z,2.00
2023-02-16T15:28:11.997Z,1.90
2023-02-16T15:30:48.390Z,1.90
2023-02-16T15:33:24.172Z,1.90
2023-02-16T15:36:02.868Z,2.00
2023-02-16T15:38:33.541Z,1.90
2023-02-16T15:41:07.496Z,1.90
2023-02-16T15:43:52.966Z,1.80
2023-02-16T15:46:41.114Z,1.80
2023-02-16T15:49:21.754Z,1.80
2023-02-16T15:51:49.380Z,1.90
2023-02-16T15:54:30.926Z,1.90
2023-02-16T15:57:04.101Z,1.90
2023-02-16T16:00:00.741Z,1.90
2023-02-16T16:02:43.844Z,1.90
2023-02-16T16:05:25.167Z,1.90
2023-02-16T16:07:53.447Z,1.90
2023-02-16T16:10:32.454Z,1.90
2023-02-16T16:13:20.504Z,1.90
2023-02-16T16:15:51.646Z,1.80
2023-02-16T16:18:46.238Z,1.80
2023-02-16T16:21:13.660Z,1.70
2023-02-16T16:23:40.682Z,1.70
2023-02-16T16:26:20.477Z,1.70
2023-02-16T16:28:47.756Z,1.70
2023-02-16T16:31:19.687Z,1.70
2023-02-16T16:33:52.725Z,1.60
2023-02-16T16:36:19.938Z,1.60
2023-02-16T16:38:48.029Z,1.60
2023-02-16T16:41:28.991Z,1.60
2023-02-16T16:43:57.188Z,1.60
2023-02-16T16:46:26.576Z,1.60
2023-02-16T16:48:57.081Z,1.60
2023-02-16T16:51:24.023Z,1.60
2023-02-16T16:53:57.565Z,1.60
2023-02-16T16:56:24.765Z,1.70
2023-02-16T16:58:53.981Z,1.60
2023-02-16T17:01:21.762Z,1.60
2023-02-16T17:03:49.132Z,1.60
2023-02-16T17:06:18.418Z,1.70
2023-02-16T17:08:46.234Z,1.70
2023-02-16T17:11:25.071Z,1.70
2023-02-16T17:13:54.791Z,1.60
2023-02-16T17:16:35.464Z,1.60
2023-02-16T17:19:03.672Z,1.60
2023-02-16T17:21:30.786Z,1.60
2023-02-16T17:23:57.756Z,1.60
2023-02-16T17:26:24.809Z,1.70
2023-02-16T17:28:51.737Z,1.60
2023-02-16T17:31:18.682Z,1.60
2023-02-16T17:33:45.737Z,1.60
2023-02-16T17:36:15.790Z,1.60
2023-02-16T17:38:43.622Z,1.60
2023-02-16T17:41:23.376Z,1.70
2023-02-16T17:43:50.597Z,1.60
2023-02-16T17:46:18.569Z,1.70
2023-02-16T17:48:49.336Z,1.70
2023-02-16T17:51:18.871Z,1.70
2023-02-16T17:53:46.178Z,1.80
2023-02-16T17:56:15.523Z,1.80
2023-02-16T17:58:45.086Z,1.80
2023-02-16T18:01:22.639Z,1.70
2023-02-16T18:03:50.489Z,1.70
2023-02-16T18:06:20.220Z,1.70
2023-02-16T18:08:47.216Z,1.70
2023-02-16T18:11:14.305Z,1.70
2023-02-16T18:13:41.475Z,1.70
2023-02-16T18:16:10.713Z,1.70
2023-02-16T18:18:39.486Z,1.70
2023-02-16T18:21:08.256Z,1.70
2023-02-16T18:23:35.379Z,1.60
2023-02-16T18:26:02.733Z,1.70
2023-02-16T18:28:33.604Z,1.70
2023-02-16T18:31:01.145Z,1.70
2023-02-16T18:33:28.606Z,1.60
2023-02-16T18:35:57.574Z,1.60
2023-02-16T18:38:25.248Z,1.60
2023-02-16T18:40:54.468Z,1.60
2023-02-16T18:43:23.780Z,1.50
2023-02-16T18:45:51.046Z,1.60
2023-02-16T18:48:18.111Z,1.60
2023-02-16T18:50:45.598Z,1.60
2023-02-16T18:53:12.775Z,1.60
2023-02-16T18:55:39.854Z,1.60
2023-02-16T18:58:08.593Z,1.60
2023-02-16T19:00:37.241Z,1.60
2023-02-16T19:03:05.433Z,1.60
2023-02-16T19:05:34.680Z,1.70
2023-02-16T19:08:01.571Z,1.70
2023-02-16T19:10:28.486Z,1.70
2023-02-16T19:12:55.489Z,1.70
2023-02-16T19:15:22.881Z,1.70
2023-02-16T19:17:50.132Z,1.60
2023-02-16T19:20:18.678Z,1.50
2023-02-16T19:22:49.637Z,1.60
2023-02-16T19:25:16.996Z,1.50
2023-02-16T19:27:44.725Z,1.40
2023-02-16T19:30:12.569Z,1.50
2023-02-16T19:32:41.256Z,1.40
2023-02-16T19:35:12.117Z,1.40
2023-02-16T19:37:41.066Z,1.40
2023-02-16T19:40:11.496Z,1.30
2023-02-16T19:42:40.239Z,1.30
2023-02-16T19:45:07.773Z,1.30
2023-02-16T19:47:35.332Z,1.40
2023-02-16T19:50:02.397Z,1.40
2023-02-16T19:52:29.312Z,1.40
2023-02-16T19:54:56.262Z,1.50
2023-02-16T19:57:23.179Z,1.50
2023-02-16T19:59:50.094Z,1.40
2023-02-16T20:02:17.227Z,1.50
2023-02-16T20:04:44.857Z,1.40
2023-02-16T20:07:11.960Z,1.30
2023-02-16T20:09:38.961Z,1.40
2023-02-16T20:12:06.454Z,1.40
2023-02-16T20:14:33.372Z,1.50
2023-02-16T20:17:00.321Z,1.50
2023-02-16T20:19:27.261Z,1.50
2023-02-16T20:21:54.280Z,1.60
2023-02-16T20:24:21.281Z,1.60
2023-02-16T20:26:49.281Z,1.60
2023-02-16T20:29:16.805Z,1.60
2023-02-16T20:31:53.228Z,1.60
2023-02-16T20:34:20.419Z,1.60
2023-02-16T20:36:47.289Z,1.60
2023-02-16T20:39:14.216Z,1.60
2023-02-16T20:41:41.516Z,1.60
2023-02-16T20:44:08.490Z,1.50
2023-02-16T20:46:36.696Z,1.50
2023-02-16T20:49:05.212Z,1.50
2023-02-16T20:51:32.251Z,1.50
2023-02-16T20:54:02.553Z,1.50
2023-02-16T20:56:29.955Z,1.50
2023-02-16T20:58:57.532Z,1.50
2023-02-16T21:01:34.430Z,1.50
2023-02-16T21:04:03.550Z,1.50
2023-02-16T21:06:31.566Z,1.50
2023-02-16T21:08:59.595Z,1.50
2023-02-16T21:11:28.679Z,1.50
2023-02-16T21:13:56.660Z,1.50
2023-02-16T21:16:23.773Z,1.50
2023-02-16T21:18:51.493Z,1.50
2023-02-16T21:21:18.679Z,1.50
2023-02-16T21:23:48.561Z,1.50
2023-02-16T21:26:17.120Z,1.50
2023-02-16T21:28:44.294Z,1.40
2023-02-16T21:31:16.958Z,1.40
2023-02-16T21:33:43.940Z,1.50
2023-02-16T21:36:14.545Z,1.50
2023-02-16T21:38:42.176Z,1.50
2023-02-16T21:41:26.192Z,1.50
2023-02-16T21:44:09.495Z,1.50
2023-02-16T21:46:48.180Z,1.50
2023-02-16T21:49:17.707Z,1.50
2023-02-16T21:51:46.535Z,1.50
2023-02-16T21:54:16.292Z,1.60
2023-02-16T21:56:50.426Z,1.50
2023-02-16T21:59:19.561Z,1.50
2023-02-16T22:01:51.301Z,1.50
2023-02-16T22:04:21.811Z,1.50
2023-02-16T22:06:50.678Z,1.50
2023-02-16T22:09:20.148Z,1.50
2023-02-16T22:11:47.746Z,1.50
2023-02-16T22:14:14.832Z,1.50
2023-02-16T22:16:41.841Z,1.50
2023-02-16T22:19:12.847Z,1.50
2023-02-16T22:21:42.409Z,1.50
2023-02-16T22:24:12.955Z,1.50
2023-02-16T22:26:40.053Z,1.50
2023-02-16T22:29:08.296Z,1.50
2023-02-16T22:31:36.580Z,1.50
2023-02-16T22:34:11.710Z,1.50
2023-02-16T22:36:40.095Z,1.50
2023-02-16T22:39:07.632Z,1.50
2023-02-16T22:41:35.202Z,1.40
2023-02-16T22:44:02.333Z,1.40
2023-02-16T22:46:29.661Z,1.40
2023-02-16T22:49:01.882Z,1.50
2023-02-16T22:51:30.660Z,1.50
2023-02-16T22:54:02.081Z,1.50
2023-02-16T22:56:29.857Z,1.50
2023-02-16T22:58:57.906Z,1.40
2023-02-16T23:01:26.781Z,1.40
2023-02-16T23:03:57.583Z,1.40
2023-02-16T23:06:30.121Z,1.40
2023-02-16T23:09:00.282Z,1.40
2023-02-16T23:11:28.510Z,1.40
2023-02-16T23:13:55.471Z,1.50
2023-02-16T23:16:24.459Z,1.50
2023-02-16T23:18:51.695Z,1.50
2023-02-16T23:21:22.274Z,1.50
2023-02-16T23:23:50.602Z,1.40
2023-02-16T23:26:19.041Z,1.40
2023-02-16T23:28:49.982Z,1.40
2023-02-16T23:31:17.950Z,1.40
2023-02-16T23:33:45.174Z,1.40
2023-02-16T23:36:12.356Z,1.40
2023-02-16T23:38:39.336Z,1.30
2023-02-16T23:41:12.057Z,1.30
2023-02-16T23:43:39.420Z,1.40
2023-02-16T23:46:07.378Z,1.40
2023-02-16T23:48:34.831Z,1.30
2023-02-16T23:51:02.056Z,1.30
2023-02-16T23:53:29.344Z,1.30
2023-02-16T23:56:09.593Z,1.30
2023-02-16T23:58:41.296Z,1.30
